createdAt,value
2017-10-05T00:01:48.743Z,60.80
2017-10-05T00:04:19.432Z,60.80
2017-10-05T00:06:48.465Z,60.80
2017-10-05T00:09:17.223Z,60.80
2017-10-05T00:11:45.922Z,61.30
2017-10-05T00:14:14.552Z,61.10
2017-10-05T00:16:44.102Z,61.10
2017-10-05T00:19:12.822Z,61.10
2017-10-05T00:21:41.511Z,61.60
2017-10-05T00:24:10.414Z,61.90
2017-10-05T00:26:39.862Z,62.30
2017-10-05T00:29:08.754Z,62.20
2017-10-05T00:31:37.666Z,62.20
2017-10-05T00:34:06.594Z,62.50
2017-10-05T00:36:36.322Z,63.40
2017-10-05T00:39:05.152Z,63.40
2017-10-05T00:41:34.353Z,63.80
2017-10-05T00:44:03.363Z,63.70
2017-10-05T00:46:32.162Z,63.90
2017-10-05T00:49:02.083Z,63.40
2017-10-05T00:51:31.954Z,63.60
2017-10-05T00:54:01.122Z,63.50
2017-10-05T00:56:30.334Z,63.90
2017-10-05T00:58:59.373Z,63.60
2017-10-05T01:01:29.322Z,63.20
2017-10-05T01:03:58.286Z,63.10
2017-10-05T01:06:27.803Z,62.20
2017-10-05T01:08:56.634Z,62.20
2017-10-05T01:11:25.712Z,62.50
2017-10-05T01:13:54.563Z,62.10
2017-10-05T01:16:24.182Z,60.40
2017-10-05T01:18:53.183Z,60.40
2017-10-05T01:21:22.113Z,59.20
2017-10-05T01:23:51.094Z,59.20
2017-10-05T01:26:20.175Z,58.80
2017-10-05T01:28:48.945Z,58.60
2017-10-05T01:31:17.475Z,58.50
2017-10-05T01:33:46.502Z,58.50
2017-10-05T01:36:16.074Z,58.80
2017-10-05T01:38:44.937Z,58.70
2017-10-05T01:41:13.974Z,58.40
2017-10-05T01:43:42.293Z,58.20
2017-10-05T01:46:11.252Z,58.10
2017-10-05T01:48:40.919Z,58.30
2017-10-05T01:51:10.082Z,58.20
2017-10-05T01:53:39.123Z,58.20
2017-10-05T01:56:08.883Z,58.00
2017-10-05T01:58:38.172Z,58.00
2017-10-05T02:01:07.172Z,57.90
2017-10-05T02:03:36.523Z,58.00
2017-10-05T02:06:05.594Z,57.90
2017-10-05T02:08:34.803Z,58.20
2017-10-05T02:11:03.503Z,58.10
2017-10-05T02:13:32.463Z,58.50
2017-10-05T02:16:01.674Z,58.20
2017-10-05T02:18:30.742Z,58.90
2017-10-05T02:20:59.622Z,58.90
2017-10-05T02:23:29.274Z,59.40
2017-10-05T02:25:58.234Z,59.40
2017-10-05T02:28:27.183Z,59.50
2017-10-05T02:30:55.715Z,59.70
2017-10-05T02:33:24.747Z,60.10
2017-10-05T02:35:53.384Z,60.50
2017-10-05T02:38:22.013Z,60.50
2017-10-05T02:40:50.723Z,60.40
2017-10-05T02:43:21.283Z,60.80
2017-10-05T02:45:50.154Z,60.70
2017-10-05T02:48:18.893Z,61.00
2017-10-05T02:50:47.774Z,61.10
2017-10-05T02:53:16.612Z,61.60
2017-10-05T02:55:46.213Z,61.70
2017-10-05T02:58:15.843Z,61.50
2017-10-05T03:00:44.962Z,61.50
2017-10-05T03:03:13.962Z,61.30
2017-10-05T03:05:43.014Z,60.60
2017-10-05T03:08:11.963Z,60.80
2017-10-05T03:10:40.982Z,59.80
2017-10-05T03:13:10.313Z,59.30
2017-10-05T03:15:39.663Z,58.90
2017-10-05T03:18:08.422Z,58.80
2017-10-05T03:20:37.811Z,58.40
2017-10-05T03:23:06.933Z,58.20
2017-10-05T03:25:35.923Z,58.10
2017-10-05T03:28:04.622Z,58.10
2017-10-05T03:30:33.834Z,58.20
2017-10-05T03:33:02.842Z,58.10
2017-10-05T03:35:32.342Z,58.60
2017-10-05T03:38:01.293Z,58.00
2017-10-05T03:40:30.073Z,58.60
2017-10-05T03:42:58.822Z,58.30
2017-10-05T03:45:27.643Z,58.50
2017-10-05T03:47:56.942Z,58.60
2017-10-05T03:50:26.033Z,58.70
2017-10-05T03:52:55.093Z,58.90
2017-10-05T03:55:24.663Z,59.30
2017-10-05T03:57:53.433Z,59.30
2017-10-05T04:00:22.242Z,59.30
2017-10-05T04:02:50.872Z,59.20
2017-10-05T04:05:19.642Z,59.30
2017-10-05T04:07:49.403Z,59.10
2017-10-05T04:10:18.474Z,59.10
2017-10-05T04:12:47.762Z,58.70
2017-10-05T04:15:16.562Z,58.80
2017-10-05T04:17:45.754Z,59.00
2017-10-05T04:20:15.142Z,59.20
2017-10-05T04:22:45.062Z,59.20
2017-10-05T04:25:13.854Z,59.10
2017-10-05T04:27:42.584Z,59.50
2017-10-05T04:30:11.612Z,58.90
2017-10-05T04:32:41.354Z,58.70
2017-10-05T04:35:10.502Z,58.60
2017-10-05T04:37:39.573Z,58.70
2017-10-05T04:40:08.323Z,58.50
2017-10-05T04:42:37.342Z,58.30
2017-10-05T04:45:06.263Z,58.50
2017-10-05T04:47:34.945Z,57.60
2017-10-05T04:50:03.785Z,57.70
2017-10-05T04:52:32.213Z,57.00
2017-10-05T04:55:00.753Z,57.10
2017-10-05T04:57:29.543Z,57.20
2017-10-05T04:59:58.443Z,56.90
2017-10-05T05:02:26.883Z,56.90
2017-10-05T05:04:56.322Z,56.80
2017-10-05T05:07:25.033Z,56.70
2017-10-05T05:09:53.862Z,56.70
2017-10-05T05:12:22.414Z,56.80
2017-10-05T05:14:51.134Z,56.70
2017-10-05T05:17:20.138Z,56.20
2017-10-05T05:19:49.183Z,56.40
2017-10-05T05:22:18.322Z,55.60
2017-10-05T05:24:47.175Z,55.50
2017-10-05T05:27:16.087Z,55.70
2017-10-05T05:29:45.702Z,55.00
2017-10-05T05:32:14.823Z,55.00
2017-10-05T05:34:44.115Z,55.60
2017-10-05T05:37:13.235Z,55.50
2017-10-05T05:39:42.343Z,55.10
2017-10-05T05:42:11.203Z,55.50
2017-10-05T05:44:39.651Z,55.50
2017-10-05T05:47:09.463Z,55.00
2017-10-05T05:49:38.873Z,55.00
2017-10-05T05:52:07.774Z,55.00
2017-10-05T05:54:37.262Z,55.10
2017-10-05T05:57:06.802Z,56.30
2017-10-05T05:59:35.822Z,56.30
2017-10-05T06:02:04.574Z,56.50
2017-10-05T06:04:33.622Z,56.70
2017-10-05T06:07:03.682Z,56.40
2017-10-05T06:09:32.584Z,56.40
2017-10-05T06:12:01.630Z,56.20
2017-10-05T06:14:30.465Z,55.90
2017-10-05T06:16:59.461Z,55.80
2017-10-05T06:19:28.181Z,55.60
2017-10-05T06:21:57.111Z,55.40
2017-10-05T06:24:25.903Z,54.90
2017-10-05T06:26:54.993Z,54.90
2017-10-05T06:29:24.015Z,54.70
2017-10-05T06:31:53.213Z,54.40
2017-10-05T06:34:22.194Z,54.50
2017-10-05T06:36:51.274Z,54.40
2017-10-05T06:39:20.261Z,54.30
2017-10-05T06:41:48.983Z,54.70
2017-10-05T06:44:18.003Z,54.20
2017-10-05T06:46:47.294Z,54.30
2017-10-05T06:49:16.234Z,53.90
2017-10-05T06:51:44.886Z,53.50
2017-10-05T06:54:14.601Z,53.60
2017-10-05T06:56:44.374Z,53.30
2017-10-05T06:59:13.103Z,53.20
2017-10-05T07:01:42.975Z,53.30
2017-10-05T07:04:11.775Z,53.30
2017-10-05T07:06:40.703Z,52.60
2017-10-05T07:09:10.051Z,52.70
2017-10-05T07:11:39.181Z,52.60
2017-10-05T07:14:08.708Z,52.90
2017-10-05T07:16:37.846Z,52.90
2017-10-05T07:19:06.792Z,53.10
2017-10-05T07:21:36.442Z,52.80
2017-10-05T07:24:05.153Z,52.80
2017-10-05T07:26:34.101Z,52.80
2017-10-05T07:29:02.823Z,52.50
2017-10-05T07:31:31.474Z,52.40
2017-10-05T07:34:00.603Z,50.70
2017-10-05T07:36:29.172Z,50.80
2017-10-05T07:38:58.586Z,49.60
2017-10-05T07:41:27.962Z,48.90
2017-10-05T07:43:57.362Z,49.00
2017-10-05T07:46:26.734Z,48.70
2017-10-05T07:48:55.763Z,49.00
2017-10-05T07:51:24.823Z,48.70
2017-10-05T07:53:54.043Z,48.20
2017-10-05T07:56:23.136Z,48.30
2017-10-05T07:58:51.843Z,48.30
2017-10-05T08:01:20.681Z,48.50
2017-10-05T08:03:50.742Z,48.70
2017-10-05T08:06:19.342Z,48.70
2017-10-05T08:08:47.994Z,49.40
2017-10-05T08:11:17.055Z,49.00
2017-10-05T08:13:47.134Z,50.40
2017-10-05T08:16:16.173Z,50.50
2017-10-05T08:18:45.536Z,49.70
2017-10-05T08:21:14.223Z,49.70
2017-10-05T08:23:43.102Z,49.10
2017-10-05T08:26:11.842Z,48.50
2017-10-05T08:28:40.854Z,48.70
2017-10-05T08:31:09.841Z,49.30
2017-10-05T08:33:39.043Z,48.40
2017-10-05T08:36:07.874Z,48.50
2017-10-05T08:38:36.331Z,49.10
2017-10-05T08:41:05.083Z,49.40
2017-10-05T08:43:34.085Z,49.90
2017-10-05T08:46:03.343Z,48.50
2017-10-05T08:48:33.521Z,48.70
2017-10-05T08:51:02.621Z,48.70
2017-10-05T08:53:31.453Z,48.00
2017-10-05T08:56:01.544Z,47.40
2017-10-05T08:58:30.853Z,47.40
2017-10-05T09:01:00.102Z,47.20
2017-10-05T09:03:29.363Z,47.50
2017-10-05T09:05:58.932Z,47.80
2017-10-05T09:08:28.233Z,47.70
2017-10-05T09:10:57.595Z,47.70
2017-10-05T09:13:26.657Z,47.70
2017-10-05T09:15:56.243Z,48.10
2017-10-05T09:18:26.203Z,48.20
2017-10-05T09:20:54.837Z,48.20
2017-10-05T09:23:23.752Z,48.30
2017-10-05T09:25:52.782Z,48.20
2017-10-05T09:28:21.357Z,48.50
2017-10-05T09:30:50.323Z,47.60
2017-10-05T09:33:18.855Z,47.30
2017-10-05T09:35:48.135Z,48.20
2017-10-05T09:38:17.055Z,47.90
2017-10-05T09:40:46.121Z,47.50
2017-10-05T09:43:15.012Z,47.50
2017-10-05T09:45:43.882Z,47.50
2017-10-05T09:48:13.693Z,47.60
2017-10-05T09:50:43.814Z,47.50
2017-10-05T09:53:13.615Z,46.80
2017-10-05T09:55:42.551Z,46.70
2017-10-05T09:58:11.814Z,46.80
2017-10-05T10:00:41.574Z,45.60
2017-10-05T10:03:10.603Z,45.60
2017-10-05T10:05:40.083Z,44.80
2017-10-05T10:08:08.934Z,44.80
2017-10-05T10:10:37.974Z,43.70
2017-10-05T10:13:06.913Z,43.90
2017-10-05T10:15:35.914Z,44.30
2017-10-05T10:18:04.223Z,43.90
2017-10-05T10:20:33.136Z,43.60
2017-10-05T10:23:03.095Z,42.50
2017-10-05T10:25:31.762Z,42.50
2017-10-05T10:28:00.735Z,41.70
2017-10-05T10:30:30.305Z,42.70
2017-10-05T10:32:59.475Z,42.70
2017-10-05T10:35:28.603Z,41.00
2017-10-05T10:37:57.463Z,39.40
2017-10-05T10:40:26.574Z,40.10
2017-10-05T10:42:55.602Z,40.70
2017-10-05T10:45:25.153Z,39.10
2017-10-05T10:47:53.975Z,39.20
2017-10-05T10:50:22.812Z,39.50
2017-10-05T10:52:52.083Z,38.30
2017-10-05T10:55:20.585Z,38.30
2017-10-05T10:57:50.716Z,38.30
2017-10-05T11:00:20.463Z,38.30
2017-10-05T11:02:49.491Z,38.70
2017-10-05T11:05:19.583Z,39.10
2017-10-05T11:07:48.723Z,39.10
2017-10-05T11:10:17.567Z,39.60
2017-10-05T11:12:49.438Z,37.60
2017-10-05T11:15:18.212Z,37.70
2017-10-05T11:17:47.252Z,38.30
2017-10-05T11:20:17.264Z,37.40
2017-10-05T11:22:47.002Z,38.20
2017-10-05T11:25:16.074Z,38.10
2017-10-05T11:27:45.553Z,38.50
2017-10-05T11:30:14.614Z,38.50
2017-10-05T11:32:43.615Z,38.10
2017-10-05T11:35:12.596Z,37.30
2017-10-05T11:37:41.523Z,36.60
2017-10-05T11:40:10.994Z,35.30
2017-10-05T11:42:39.737Z,35.30
2017-10-05T11:45:09.693Z,35.30
2017-10-05T11:47:38.333Z,35.30
2017-10-05T11:50:08.014Z,33.70
2017-10-05T11:52:36.923Z,33.70
2017-10-05T11:55:06.642Z,34.40
2017-10-05T11:57:36.215Z,33.10
2017-10-05T12:00:04.874Z,33.00
2017-10-05T12:02:33.894Z,33.00
2017-10-05T12:05:02.794Z,33.00
2017-10-05T12:07:32.022Z,32.90
2017-10-05T12:10:01.803Z,33.20
2017-10-05T12:12:31.283Z,33.10
2017-10-05T12:15:00.429Z,33.50
2017-10-05T12:17:30.282Z,31.50
2017-10-05T12:19:59.433Z,31.50
2017-10-05T12:22:30.174Z,31.10
2017-10-05T12:25:00.475Z,31.40
2017-10-05T12:27:29.604Z,31.50
2017-10-05T12:29:58.943Z,31.50
2017-10-05T12:32:29.721Z,31.20
2017-10-05T12:34:58.613Z,31.60
2017-10-05T12:37:28.663Z,31.40
2017-10-05T12:39:57.673Z,31.40
2017-10-05T12:42:26.743Z,31.70
2017-10-05T12:44:55.903Z,31.50
2017-10-05T12:47:25.735Z,31.00
2017-10-05T12:49:55.034Z,31.00
2017-10-05T12:52:23.673Z,31.40
2017-10-05T12:54:52.453Z,31.30
2017-10-05T12:57:21.313Z,31.80
2017-10-05T12:59:50.422Z,31.60
2017-10-05T13:02:19.574Z,31.00
2017-10-05T13:04:49.068Z,38.60
2017-10-05T13:07:18.674Z,38.30
2017-10-05T13:09:48.702Z,37.30
2017-10-05T13:12:17.535Z,37.80
2017-10-05T13:14:46.462Z,35.20
2017-10-05T13:17:15.663Z,35.80
2017-10-05T13:19:45.622Z,37.90
2017-10-05T13:22:14.643Z,37.60
2017-10-05T13:24:43.642Z,38.50
2017-10-05T13:27:12.822Z,37.70
2017-10-05T13:29:42.173Z,38.00
2017-10-05T13:32:12.519Z,35.90
2017-10-05T13:34:41.743Z,35.90
2017-10-05T13:37:10.534Z,33.90
2017-10-05T13:39:39.362Z,36.90
2017-10-05T13:42:08.973Z,40.20
2017-10-05T13:44:39.014Z,39.40
2017-10-05T13:47:08.243Z,39.30
2017-10-05T13:49:37.296Z,39.60
2017-10-05T13:52:07.854Z,38.40
2017-10-05T13:54:36.893Z,38.40
2017-10-05T13:57:05.714Z,40.30
2017-10-05T13:59:34.741Z,38.60
2017-10-05T14:02:03.655Z,37.80
2017-10-05T14:04:32.213Z,34.80
2017-10-05T14:07:01.075Z,35.00
2017-10-05T14:09:30.293Z,34.40
2017-10-05T14:11:58.976Z,35.20
2017-10-05T14:14:27.821Z,38.10
2017-10-05T14:16:57.573Z,35.40
2017-10-05T14:19:26.553Z,35.30
2017-10-05T14:21:55.542Z,35.10
2017-10-05T14:24:24.582Z,36.70
2017-10-05T14:26:54.663Z,38.40
2017-10-05T14:29:23.613Z,38.50
2017-10-05T14:31:54.496Z,38.00
2017-10-05T14:34:23.714Z,38.00
2017-10-05T14:36:53.062Z,38.60
2017-10-05T14:39:22.663Z,38.60
2017-10-05T14:41:52.642Z,39.30
2017-10-05T14:44:21.483Z,39.30
2017-10-05T14:46:50.802Z,44.60
2017-10-05T14:49:20.152Z,40.40
2017-10-05T14:51:49.323Z,39.00
2017-10-05T14:54:18.182Z,38.90
2017-10-05T14:56:47.403Z,38.80
2017-10-05T14:59:16.342Z,38.90
2017-10-05T15:01:45.813Z,40.20
2017-10-05T15:04:14.571Z,39.60
2017-10-05T15:06:43.423Z,39.90
2017-10-05T15:09:12.995Z,40.20
2017-10-05T15:11:41.534Z,40.10
2017-10-05T15:14:10.543Z,40.60
2017-10-05T15:16:39.441Z,40.40
2017-10-05T15:19:08.402Z,37.40
2017-10-05T15:21:37.274Z,34.40
2017-10-05T15:24:06.863Z,32.20
2017-10-05T15:26:35.683Z,32.20
2017-10-05T15:29:04.282Z,32.50
2017-10-05T15:31:33.443Z,32.50
2017-10-05T15:34:03.393Z,32.30
2017-10-05T15:36:32.562Z,32.30
2017-10-05T15:39:02.563Z,32.40
2017-10-05T15:41:32.203Z,32.80
2017-10-05T15:44:01.243Z,32.70
2017-10-05T15:46:30.514Z,33.10
2017-10-05T15:48:59.543Z,31.60
2017-10-05T15:51:29.551Z,31.50
2017-10-05T15:53:58.423Z,31.40
2017-10-05T15:56:27.482Z,31.10
2017-10-05T15:58:56.582Z,31.00
2017-10-05T16:01:26.074Z,30.50
2017-10-05T16:03:55.544Z,31.30
2017-10-05T16:06:24.883Z,31.20
2017-10-05T16:08:53.903Z,31.20
2017-10-05T16:11:23.083Z,29.90
2017-10-05T16:13:51.882Z,30.30
2017-10-05T16:16:20.754Z,30.80
2017-10-05T16:18:49.755Z,29.80
2017-10-05T16:21:18.913Z,30.40
2017-10-05T16:23:47.772Z,29.80
2017-10-05T16:26:16.413Z,30.10
2017-10-05T16:28:45.603Z,30.30
2017-10-05T16:31:14.492Z,30.90
2017-10-05T16:33:44.143Z,31.30
2017-10-05T16:36:13.042Z,31.30
2017-10-05T16:38:41.754Z,32.20
2017-10-05T16:41:12.762Z,33.80
2017-10-05T16:43:42.074Z,33.80
2017-10-05T16:46:11.015Z,35.30
2017-10-05T16:48:40.454Z,36.30
2017-10-05T16:51:09.593Z,37.60
2017-10-05T16:53:39.171Z,39.20
2017-10-05T16:56:08.274Z,39.10
2017-10-05T16:58:39.003Z,40.60
2017-10-05T17:01:08.313Z,40.60
2017-10-05T17:03:37.622Z,41.40
2017-10-05T17:06:07.414Z,42.80
2017-10-05T17:08:36.503Z,42.80
2017-10-05T17:11:05.474Z,43.00
2017-10-05T17:13:34.263Z,43.50
2017-10-05T17:16:03.135Z,44.20
2017-10-05T17:18:32.234Z,43.60
2017-10-05T17:21:01.262Z,43.70
2017-10-05T17:23:30.234Z,44.00
2017-10-05T17:25:59.122Z,43.90
2017-10-05T17:28:27.954Z,44.60
2017-10-05T17:30:56.713Z,45.00
2017-10-05T17:33:25.694Z,45.60
2017-10-05T17:35:54.651Z,46.00
2017-10-05T17:38:23.714Z,46.10
2017-10-05T17:40:53.983Z,47.10
2017-10-05T17:43:22.835Z,47.10
2017-10-05T17:45:52.102Z,47.80
2017-10-05T17:48:21.063Z,48.10
2017-10-05T17:50:50.422Z,48.30
2017-10-05T17:53:20.074Z,49.40
2017-10-05T17:55:49.174Z,49.40
2017-10-05T17:58:18.203Z,49.40
2017-10-05T18:00:48.695Z,49.80
2017-10-05T18:03:17.595Z,49.80
2017-10-05T18:05:46.863Z,50.40
2017-10-05T18:08:16.081Z,50.10
2017-10-05T18:10:45.135Z,49.60
2017-10-05T18:13:15.223Z,49.40
2017-10-05T18:15:44.183Z,49.30
2017-10-05T18:18:13.354Z,45.90
2017-10-05T18:20:43.081Z,43.30
2017-10-05T18:23:12.101Z,43.30
2017-10-05T18:25:40.983Z,41.90
2017-10-05T18:28:10.044Z,43.80
2017-10-05T18:30:38.795Z,46.40
2017-10-05T18:33:09.183Z,45.20
2017-10-05T18:35:37.994Z,45.20
2017-10-05T18:38:06.554Z,45.40
2017-10-05T18:40:35.496Z,46.00
2017-10-05T18:43:04.774Z,47.10
2017-10-05T18:45:33.694Z,47.00
2017-10-05T18:48:03.503Z,49.40
2017-10-05T18:50:32.043Z,49.40
2017-10-05T18:53:00.823Z,51.20
2017-10-05T18:55:29.883Z,52.40
2017-10-05T18:57:59.135Z,52.90
2017-10-05T19:00:29.243Z,52.40
2017-10-05T19:02:59.203Z,52.90
2017-10-05T19:05:28.864Z,53.80
2017-10-05T19:07:57.503Z,53.80
2017-10-05T19:10:26.954Z,54.20
2017-10-05T19:12:55.375Z,54.70
2017-10-05T19:15:25.184Z,54.70
2017-10-05T19:17:54.717Z,55.00
2017-10-05T19:20:23.734Z,54.90
2017-10-05T19:22:52.631Z,55.90
2017-10-05T19:25:21.504Z,54.50
2017-10-05T19:27:50.353Z,55.10
2017-10-05T19:30:20.196Z,56.50
2017-10-05T19:32:49.490Z,56.30
2017-10-05T19:35:18.451Z,56.90
2017-10-05T19:37:48.164Z,58.20
2017-10-05T19:40:17.644Z,58.40
2017-10-05T19:42:46.742Z,58.40
2017-10-05T19:45:15.624Z,58.30
2017-10-05T19:47:44.274Z,58.40
2017-10-05T19:50:13.636Z,58.60
2017-10-05T19:52:43.174Z,60.70
2017-10-05T19:55:11.855Z,60.70
2017-10-05T19:57:40.903Z,60.40
2017-10-05T20:00:09.743Z,60.60
2017-10-05T20:02:38.936Z,61.50
2017-10-05T20:05:08.002Z,61.60
2017-10-05T20:07:37.428Z,61.90
2017-10-05T20:10:06.615Z,61.90
2017-10-05T20:12:36.455Z,63.40
2017-10-05T20:15:10.682Z,63.30
2017-10-05T20:17:45.035Z,64.00
2017-10-05T20:20:30.954Z,63.90
2017-10-05T20:23:01.234Z,65.10
2017-10-05T20:25:31.799Z,65.10
2017-10-05T20:28:05.708Z,65.00
2017-10-05T20:30:37.234Z,65.10
2017-10-05T20:33:07.155Z,65.20
2017-10-05T20:35:36.843Z,67.00
2017-10-05T20:38:05.536Z,67.00
2017-10-05T20:40:34.424Z,67.40
2017-10-05T20:43:03.524Z,67.00
2017-10-05T20:45:33.303Z,66.80
2017-10-05T20:48:02.363Z,66.80
2017-10-05T20:50:31.112Z,66.70
2017-10-05T20:52:59.703Z,66.50
2017-10-05T20:55:29.653Z,67.50
2017-10-05T20:57:58.324Z,67.40
2017-10-05T21:00:27.447Z,67.10
2017-10-05T21:02:56.355Z,67.50
2017-10-05T21:05:25.064Z,67.70
2017-10-05T21:07:53.603Z,67.20
2017-10-05T21:10:22.796Z,67.80
2017-10-05T21:12:51.662Z,66.90
2017-10-05T21:15:20.574Z,67.00
2017-10-05T21:17:49.635Z,67.70
2017-10-05T21:20:19.323Z,66.80
2017-10-05T21:22:49.454Z,66.80
2017-10-05T21:25:19.175Z,67.90
2017-10-05T21:27:48.852Z,68.90
2017-10-05T21:30:17.542Z,68.80
2017-10-05T21:32:46.592Z,68.20
2017-10-05T21:35:15.803Z,67.40
2017-10-05T21:37:45.064Z,68.30
2017-10-05T21:40:14.354Z,68.60
2017-10-05T21:42:43.975Z,67.80
2017-10-05T21:45:12.775Z,67.80
2017-10-05T21:47:41.694Z,68.90
2017-10-05T21:50:10.874Z,68.50
2017-10-05T21:52:39.654Z,68.10
2017-10-05T21:55:08.756Z,68.40
2017-10-05T21:57:37.823Z,68.00
2017-10-05T22:05:29.303Z,68.00
2017-10-05T22:07:59.680Z,68.00
2017-10-05T22:10:28.351Z,67.60
2017-10-05T22:12:56.492Z,67.10
2017-10-05T22:15:24.716Z,67.70
2017-10-05T22:17:54.218Z,68.90
2017-10-05T22:20:22.517Z,68.80
2017-10-05T22:22:50.873Z,69.60
2017-10-05T22:25:19.425Z,66.00
2017-10-05T22:27:47.931Z,64.40
2017-10-05T22:30:17.010Z,62.80
2017-10-05T22:32:45.170Z,62.80
2017-10-05T22:35:13.672Z,60.90
2017-10-05T22:37:41.933Z,61.00
2017-10-05T22:40:10.333Z,59.90
2017-10-05T22:42:38.717Z,61.20
2017-10-05T22:45:08.018Z,63.00
2017-10-05T22:47:37.386Z,63.20
2017-10-05T22:50:05.878Z,63.20
2017-10-05T22:52:34.358Z,61.50
2017-10-05T22:55:02.652Z,62.80
2017-10-05T22:57:31.952Z,62.80
2017-10-05T23:00:00.094Z,62.70
2017-10-05T23:02:28.395Z,64.90
2017-10-05T23:04:56.734Z,64.10
2017-10-05T23:07:24.828Z,63.30
2017-10-05T23:09:53.214Z,63.40
2017-10-05T23:12:21.594Z,63.30
2017-10-05T23:14:49.857Z,63.60
2017-10-05T23:17:18.042Z,63.30
2017-10-05T23:19:46.289Z,63.40
2017-10-05T23:22:14.470Z,63.40
2017-10-05T23:24:42.882Z,63.70
2017-10-05T23:27:11.862Z,63.80
2017-10-05T23:29:41.170Z,64.20
2017-10-05T23:32:10.049Z,66.00
2017-10-05T23:34:38.349Z,65.30
2017-10-05T23:37:07.408Z,65.00
2017-10-05T23:39:35.856Z,64.90
2017-10-05T23:42:04.268Z,64.70
2017-10-05T23:44:32.509Z,64.80
2017-10-05T23:47:01.048Z,66.00
2017-10-05T23:49:30.129Z,66.10
2017-10-05T23:51:58.592Z,66.00
2017-10-05T23:54:26.724Z,65.80
2017-10-05T23:56:55.158Z,65.40
2017-10-05T23:59:23.538Z,65.80
